Main page
METAR-TAF:

METAR-TAF

Airports :

Capitán Oriel Lea Plaza Airport

Tarija, Bolivia

latitude: 21-33S, longitude: 064-42W, elevation: 1854 m

Current weather observation

The report was made 19 hours and 33 minutes ago, at 12:00 UTC
Calm wind
Temperature 18°C
Humidity 88%
Pressure 1026 hPa
Visibility 10 km or more
Scattered clouds at a height of 2500 ft
Broken clouds at a height of 20000 ft

METAR: SLTJ 021200Z 00000KT 9999 SCT025 BKN200 18/16 Q1026

Time: 03:33 (07:33 UTC)


TAF: missing

Weather observations and forecasts of more than 4000 airports (METAR and TAF reports).

The available stations are represented by yellow and red dots on the map.

Hover mouse over dot to see the name of the station.

Then click to see weather observations and forecasts.

To change the map : click on the green buttons with a black cross to zoom in, on the green button with a dash to zoom out, or on the green arrows for adjacent maps.


METAR-TAF: